Time;durP1;ratioP1;P1;durP2;ratioP2;P2;SDS_P1;SDS_P2;PMS_P1;PMS_P2;Temp;Humidity;BMP_temperature;BMP_pressure;BME280_temperature;BME280_humidity;BME280_pressure;Samples;Min_cycle;Max_cycle;Signal;HPM_P1;HPM_P2
2021/03/17 00:01:40;;;;;;;6.73;4.77;;;5.80;99.90;;;;;;5050725;28;20223;-83
2021/03/17 00:04:25;;;;;;;6.67;4.47;;;5.70;99.90;;;;;;5056685;28;20199;-83
2021/03/17 00:07:10;;;;;;;5.27;4.07;;;5.70;99.90;;;;;;5057245;28;20797;-83
2021/03/17 00:09:56;;;;;;;6.53;4.30;;;5.70;99.90;;;;;;5049261;28;20226;-83
2021/03/17 00:12:41;;;;;;;8.13;4.23;;;5.70;99.90;;;;;;5055157;28;20195;-84
2021/03/17 00:15:31;;;;;;;5.77;3.63;;;5.60;99.90;;;;;;5054806;28;20233;-83
2021/03/17 00:18:16;;;;;;;6.97;4.03;;;5.60;99.90;;;;;;5049943;28;20223;-84
2021/03/17 00:21:02;;;;;;;4.90;3.57;;;5.50;99.90;;;;;;5049236;28;20227;-84
2021/03/17 00:23:46;;;;;;;5.50;3.60;;;5.40;99.90;;;;;;5049910;28;20251;-84
2021/03/17 00:26:32;;;;;;;6.97;4.20;;;5.40;99.90;;;;;;5043794;28;20211;-84
2021/03/17 00:29:17;;;;;;;5.63;3.83;;;5.30;99.90;;;;;;5039138;28;20207;-84
2021/03/17 00:32:03;;;;;;;4.40;3.40;;;5.20;99.90;;;;;;5048772;28;20294;-84
2021/03/17 00:34:48;;;;;;;5.30;3.63;;;5.10;99.90;;;;;;5049666;28;20230;-82
2021/03/17 00:37:32;;;;;;;5.23;3.40;;;5.00;99.90;;;;;;5049090;28;20725;-83
2021/03/17 00:40:18;;;;;;;5.60;3.60;;;5.00;99.90;;;;;;5042468;28;20239;-83
2021/03/17 00:43:04;;;;;;;7.30;4.10;;;4.90;99.90;;;;;;5056688;28;20218;-82
2021/03/17 00:45:49;;;;;;;6.53;4.00;;;4.90;99.90;;;;;;5049268;28;20242;-82
2021/03/17 00:48:34;;;;;;;7.27;4.10;;;4.80;99.90;;;;;;5042107;28;20203;-83
2021/03/17 00:51:19;;;;;;;6.63;4.10;;;4.70;99.90;;;;;;5055737;28;20733;-83
2021/03/17 00:54:05;;;;;;;8.73;4.77;;;4.70;99.90;;;;;;5061157;28;20211;-84
2021/03/17 00:56:50;;;;;;;6.37;4.43;;;4.70;99.90;;;;;;5044714;28;20626;-83
2021/03/17 00:59:36;;;;;;;9.93;4.67;;;4.70;99.90;;;;;;5047003;28;20234;-83
2021/03/17 01:02:20;;;;;;;8.33;4.60;;;4.80;99.90;;;;;;5049553;28;20291;-83
2021/03/17 01:05:08;;;;;;;9.93;4.33;;;4.70;99.90;;;;;;5043908;28;20231;-83
2021/03/17 01:07:53;;;;;;;9.03;5.20;;;4.80;99.90;;;;;;5054575;28;20283;-83
2021/03/17 01:10:41;;;;;;;8.93;5.07;;;4.70;99.90;;;;;;5042729;28;20778;-84
2021/03/17 01:13:27;;;;;;;11.93;5.13;;;4.70;99.90;;;;;;5040763;28;20209;-83
2021/03/17 01:16:13;;;;;;;9.73;5.50;;;4.70;99.90;;;;;;5053934;28;20284;-84
2021/03/17 01:18:58;;;;;;;8.57;4.77;;;4.70;99.90;;;;;;5056086;28;20211;-82
2021/03/17 01:21:45;;;;;;;8.57;5.23;;;4.70;99.90;;;;;;5048086;28;20203;-84
2021/03/17 01:24:31;;;;;;;8.10;5.13;;;4.70;99.90;;;;;;5053833;28;20781;-83
2021/03/17 01:27:16;;;;;;;10.43;5.97;;;4.80;99.90;;;;;;5043358;28;20210;-83
2021/03/17 01:30:01;;;;;;;10.80;5.93;;;4.80;99.90;;;;;;5043335;28;20231;-85
2021/03/17 01:32:46;;;;;;;9.80;5.47;;;4.80;99.90;;;;;;5046478;28;20242;-83
2021/03/17 01:35:32;;;;;;;9.00;5.40;;;4.90;99.90;;;;;;5053551;28;20211;-83
2021/03/17 01:38:17;;;;;;;12.10;6.37;;;4.80;99.90;;;;;;5048283;28;20281;-84
2021/03/17 01:41:02;;;;;;;11.53;6.60;;;4.80;99.90;;;;;;5054900;28;20222;-84
2021/03/17 01:43:47;;;;;;;11.00;6.77;;;4.90;99.90;;;;;;5051688;28;20226;-83
2021/03/17 01:46:31;;;;;;;9.83;6.53;;;4.90;99.90;;;;;;5047447;28;20222;-84
2021/03/17 01:49:17;;;;;;;10.00;6.70;;;4.90;99.90;;;;;;5054389;28;20292;-83
2021/03/17 01:52:02;;;;;;;9.97;6.60;;;5.00;99.90;;;;;;5055322;23;20323;-78
2021/03/17 01:54:47;;;;;;;12.87;7.57;;;5.00;99.90;;;;;;5044863;28;20207;-78
2021/03/17 01:57:32;;;;;;;13.40;6.83;;;5.00;99.90;;;;;;5039247;28;20218;-78
2021/03/17 02:00:19;;;;;;;8.97;6.27;;;5.00;99.90;;;;;;5041901;28;20229;-77
2021/03/17 02:03:04;;;;;;;9.30;5.97;;;5.10;99.90;;;;;;5036145;28;20215;-77
2021/03/17 02:05:51;;;;;;;10.03;6.50;;;5.10;99.90;;;;;;5034625;28;20218;-77
2021/03/17 02:08:37;;;;;;;9.33;6.03;;;5.10;99.90;;;;;;5036311;28;20287;-77
2021/03/17 02:11:23;;;;;;;10.60;6.00;;;5.10;99.90;;;;;;5035438;28;20235;-78
2021/03/17 02:14:21;;;;;;;11.20;6.33;;;5.10;99.90;;;;;;5027508;28;20280;-77
2021/03/17 02:17:12;;;;;;;9.43;6.07;;;5.10;99.90;;;;;;5031080;28;20246;-77
2021/03/17 02:20:40;;;;;;;8.93;5.90;;;5.10;99.90;;;;;;5033304;28;20210;-77
2021/03/17 02:23:31;;;;;;;11.67;6.77;;;5.20;99.90;;;;;;5033236;28;20219;-78
2021/03/17 02:26:49;;;;;;;11.47;6.40;;;5.20;99.90;;;;;;5034628;28;20202;-78
2021/03/17 02:30:28;;;;;;;9.90;6.53;;;5.20;99.90;;;;;;5009290;28;20208;-78
2021/03/17 02:33:45;;;;;;;11.00;6.83;;;5.20;99.90;;;;;;5029680;28;20238;-77
2021/03/17 02:36:38;;;;;;;11.83;7.47;;;5.20;99.90;;;;;;5040299;28;20214;-78
2021/03/17 02:39:28;;;;;;;12.90;7.83;;;5.20;99.90;;;;;;5025920;28;20220;-78
2021/03/17 02:42:18;;;;;;;11.67;7.87;;;5.20;99.90;;;;;;5031374;28;20231;-78
2021/03/17 02:45:06;;;;;;;11.60;7.93;;;5.20;99.90;;;;;;5038605;28;20199;-78
2021/03/17 02:47:54;;;;;;;17.50;9.20;;;5.30;99.90;;;;;;5056609;28;20348;-77
2021/03/17 02:50:43;;;;;;;12.90;8.37;;;5.30;99.90;;;;;;5034013;28;20240;-77
2021/03/17 02:53:32;;;;;;;14.43;9.13;;;5.30;99.90;;;;;;5031697;28;20758;-78
2021/03/17 02:56:18;;;;;;;12.50;8.17;;;5.30;99.90;;;;;;5032387;28;20282;-78
2021/03/17 02:59:05;;;;;;;12.27;7.47;;;5.30;99.90;;;;;;5035064;28;20286;-78
2021/03/17 03:01:52;;;;;;;12.03;7.20;;;5.40;99.90;;;;;;5040235;28;20230;-78
2021/03/17 03:04:41;;;;;;;11.53;7.40;;;5.40;99.90;;;;;;5042218;28;20211;-79
2021/03/17 03:07:26;;;;;;;11.13;7.70;;;5.40;99.90;;;;;;5040842;28;20219;-78
2021/03/17 03:10:13;;;;;;;11.43;7.60;;;5.40;99.90;;;;;;5036351;28;20222;-78
2021/03/17 03:13:00;;;;;;;11.07;7.23;;;5.40;99.90;;;;;;5030988;28;20235;-76
2021/03/17 03:15:45;;;;;;;12.00;8.40;;;5.40;99.90;;;;;;5038156;28;20207;-77
2021/03/17 03:18:34;;;;;;;9.80;7.60;;;5.50;99.90;;;;;;5037813;28;20779;-77
2021/03/17 03:21:21;;;;;;;12.70;8.30;;;5.50;99.90;;;;;;5034142;28;20223;-77
2021/03/17 03:24:07;;;;;;;13.43;8.43;;;5.50;99.90;;;;;;5038488;28;20231;-78
2021/03/17 03:26:56;;;;;;;12.67;7.40;;;5.50;99.90;;;;;;5037768;28;20211;-77
2021/03/17 03:29:42;;;;;;;12.00;8.30;;;5.50;99.90;;;;;;5032710;28;20637;-78
2021/03/17 03:32:27;;;;;;;11.57;8.07;;;5.50;99.90;;;;;;5034991;28;20746;-77
2021/03/17 03:35:14;;;;;;;11.30;8.13;;;5.60;99.90;;;;;;5035162;28;20707;-77
2021/03/17 03:37:59;;;;;;;11.53;7.33;;;5.60;99.90;;;;;;5037612;28;20207;-77
2021/03/17 03:40:44;;;;;;;11.53;8.00;;;5.60;99.90;;;;;;5039211;28;20233;-78
2021/03/17 03:43:30;;;;;;;12.90;8.23;;;5.60;99.90;;;;;;5033822;28;20589;-79
2021/03/17 03:46:15;;;;;;;9.90;6.97;;;5.60;99.90;;;;;;5037679;28;20203;-76
2021/03/17 03:49:00;;;;;;;10.03;7.07;;;5.60;99.90;;;;;;5031147;28;20215;-77
2021/03/17 03:51:53;;;;;;;10.00;6.87;;;5.60;99.90;;;;;;5047034;28;20406;-78
2021/03/17 03:54:42;;;;;;;11.60;7.43;;;5.60;99.90;;;;;;5035125;28;20211;-78
2021/03/17 03:57:31;;;;;;;10.20;7.17;;;5.70;99.90;;;;;;5035370;28;20786;-78
2021/03/17 04:00:22;;;;;;;9.97;6.70;;;5.70;99.90;;;;;;5037838;28;20285;-78
2021/03/17 04:03:09;;;;;;;9.60;6.77;;;5.70;99.90;;;;;;5015563;28;20668;-77
2021/03/17 04:05:55;;;;;;;7.93;6.40;;;5.70;99.90;;;;;;5034572;28;20215;-77
2021/03/17 04:08:43;;;;;;;9.73;6.93;;;5.70;99.90;;;;;;5046442;28;20212;-78
2021/03/17 04:11:29;;;;;;;11.20;7.97;;;5.70;99.90;;;;;;5037252;28;20323;-79
2021/03/17 04:14:18;;;;;;;9.73;6.97;;;5.70;99.90;;;;;;5035647;28;20654;-77
2021/03/17 04:17:09;;;;;;;10.07;6.80;;;5.70;99.90;;;;;;5035867;28;20246;-77
2021/03/17 04:19:58;;;;;;;13.20;6.97;;;5.70;99.90;;;;;;5037937;28;20198;-77
2021/03/17 04:22:45;;;;;;;9.00;6.47;;;5.80;99.90;;;;;;5027909;28;20258;-77
2021/03/17 04:25:32;;;;;;;9.23;6.90;;;5.80;99.90;;;;;;5045452;28;20203;-77
2021/03/17 04:28:21;;;;;;;11.63;7.00;;;5.80;99.90;;;;;;5023561;28;20242;-78
2021/03/17 04:31:07;;;;;;;10.37;6.77;;;5.80;99.90;;;;;;5034190;28;20243;-78
2021/03/17 04:33:53;;;;;;;11.03;7.40;;;5.80;99.90;;;;;;5031447;28;20271;-77
2021/03/17 04:36:38;;;;;;;12.10;6.93;;;5.80;99.90;;;;;;5026803;28;20220;-78
2021/03/17 04:39:24;;;;;;;11.77;7.53;;;5.80;99.90;;;;;;5034178;28;20254;-77
2021/03/17 04:42:10;;;;;;;12.30;7.50;;;5.80;99.90;;;;;;5034237;28;20282;-77
2021/03/17 04:44:56;;;;;;;10.30;7.40;;;5.80;99.90;;;;;;5038419;28;20797;-78
2021/03/17 04:47:43;;;;;;;14.20;7.63;;;5.80;99.90;;;;;;5047702;28;20210;-77
2021/03/17 04:50:29;;;;;;;10.57;7.60;;;5.90;99.90;;;;;;5023560;28;20813;-78
2021/03/17 04:53:14;;;;;;;11.23;7.57;;;5.80;99.90;;;;;;5048835;28;20199;-79
2021/03/17 04:56:04;;;;;;;10.63;7.63;;;5.80;99.90;;;;;;5035357;28;20208;-78
2021/03/17 04:58:50;;;;;;;10.37;7.43;;;5.80;99.90;;;;;;5025540;28;20691;-78
2021/03/17 05:01:36;;;;;;;11.80;8.47;;;5.90;99.90;;;;;;5032983;28;20239;-77
2021/03/17 05:04:22;;;;;;;12.67;8.20;;;5.90;99.90;;;;;;5032290;28;20238;-78
2021/03/17 05:07:11;;;;;;;13.87;8.27;;;5.90;99.90;;;;;;5047329;28;20282;-77
2021/03/17 05:09:56;;;;;;;10.67;7.63;;;5.90;99.90;;;;;;5027628;28;20203;-78
2021/03/17 05:12:42;;;;;;;10.20;7.87;;;5.90;99.90;;;;;;5022536;28;20204;-77
2021/03/17 05:15:28;;;;;;;11.73;8.07;;;5.90;99.90;;;;;;5039276;28;20211;-78
2021/03/17 05:18:17;;;;;;;10.67;8.07;;;5.90;99.90;;;;;;5041790;28;20597;-80
2021/03/17 05:21:03;;;;;;;10.73;8.17;;;5.90;99.90;;;;;;5048011;28;20223;-77
2021/03/17 05:23:49;;;;;;;10.07;8.10;;;5.90;99.90;;;;;;5040346;28;20227;-78
2021/03/17 05:26:35;;;;;;;12.97;9.07;;;5.90;99.90;;;;;;5025336;28;20685;-80
2021/03/17 05:29:23;;;;;;;12.97;9.30;;;5.90;99.90;;;;;;5027576;28;20246;-77
2021/03/17 05:32:10;;;;;;;11.73;8.20;;;5.90;99.90;;;;;;5034411;28;20240;-78
2021/03/17 05:34:57;;;;;;;11.47;9.00;;;5.90;99.90;;;;;;5036000;28;20275;-78
2021/03/17 05:37:42;;;;;;;16.43;10.23;;;5.90;99.90;;;;;;5034026;28;20208;-77
2021/03/17 05:40:29;;;;;;;12.47;8.40;;;5.90;99.90;;;;;;5033488;28;20366;-77
2021/03/17 05:43:14;;;;;;;11.40;8.70;;;5.90;99.90;;;;;;5031172;28;20368;-77
2021/03/17 05:46:03;;;;;;;11.80;8.80;;;5.90;99.90;;;;;;5052109;28;20210;-77
2021/03/17 05:48:50;;;;;;;13.77;9.23;;;5.90;99.90;;;;;;5033660;28;20225;-77
2021/03/17 05:51:35;;;;;;;12.37;9.17;;;5.90;99.90;;;;;;5035030;28;20246;-77
2021/03/17 05:54:21;;;;;;;13.30;9.27;;;5.90;99.90;;;;;;5034195;28;20215;-77
2021/03/17 05:57:07;;;;;;;13.87;8.30;;;5.90;99.90;;;;;;5027617;28;20208;-77
2021/03/17 05:59:52;;;;;;;11.10;7.77;;;6.00;99.90;;;;;;5030748;28;20748;-77
2021/03/17 06:02:37;;;;;;;12.70;7.63;;;6.00;99.90;;;;;;5033213;28;20625;-77
2021/03/17 06:05:25;;;;;;;11.80;8.27;;;6.00;99.90;;;;;;5026570;28;20214;-77
2021/03/17 06:08:13;;;;;;;7.67;5.97;;;6.00;99.90;;;;;;5026735;28;20378;-77
2021/03/17 06:11:01;;;;;;;8.43;6.00;;;6.00;99.90;;;;;;5027313;28;20249;-77
2021/03/17 06:13:49;;;;;;;12.77;5.83;;;6.00;99.90;;;;;;5023094;28;20559;-76
2021/03/17 06:16:36;;;;;;;7.33;5.07;;;6.00;99.90;;;;;;5021510;28;20565;-78
2021/03/17 06:19:25;;;;;;;7.53;4.73;;;6.00;99.90;;;;;;5033103;28;20696;-78
2021/03/17 06:22:10;;;;;;;5.57;3.80;;;6.00;99.90;;;;;;5020058;28;20274;-78
2021/03/17 06:24:56;;;;;;;5.70;4.53;;;6.00;99.90;;;;;;5029148;28;20259;-78
2021/03/17 06:27:42;;;;;;;5.23;3.80;;;6.00;99.90;;;;;;5032010;28;20205;-78
2021/03/17 06:30:28;;;;;;;5.97;4.00;;;6.00;99.90;;;;;;5021516;28;20621;-76
2021/03/17 06:33:13;;;;;;;6.50;3.87;;;6.00;99.90;;;;;;5024278;28;20211;-77
2021/03/17 06:36:15;;;;;;;7.27;3.93;;;6.00;99.90;;;;;;5027645;28;20819;-77
2021/03/17 06:39:08;;;;;;;5.33;3.33;;;6.10;99.90;;;;;;5033608;28;20229;-77
2021/03/17 06:41:54;;;;;;;8.20;4.60;;;6.00;99.90;;;;;;5027433;28;20269;-77
2021/03/17 06:44:39;;;;;;;6.33;3.90;;;6.00;99.90;;;;;;5046899;28;20734;-77
2021/03/17 06:47:24;;;;;;;7.87;4.13;;;6.00;99.90;;;;;;5038314;28;20234;-77
2021/03/17 06:50:14;;;;;;;6.40;4.07;;;6.00;99.90;;;;;;5040218;28;20242;-78
2021/03/17 06:52:59;;;;;;;6.90;4.23;;;6.00;99.90;;;;;;5040991;28;20234;-78
2021/03/17 06:55:44;;;;;;;9.37;5.33;;;6.00;99.90;;;;;;5027375;28;20211;-78
2021/03/17 06:58:39;;;;;;;6.27;4.37;;;6.10;99.90;;;;;;5036336;28;20247;-78
2021/03/17 07:01:32;;;;;;;7.83;4.33;;;6.10;99.90;;;;;;5029073;28;20235;-78
2021/03/17 07:04:19;;;;;;;8.40;4.67;;;6.10;99.90;;;;;;5040677;28;20222;-78
2021/03/17 07:07:05;;;;;;;10.17;4.90;;;6.20;99.90;;;;;;5036350;28;20199;-78
2021/03/17 07:09:59;;;;;;;8.93;5.17;;;6.20;99.90;;;;;;5041049;28;20238;-78
2021/03/17 07:12:44;;;;;;;7.80;5.10;;;6.30;99.90;;;;;;5039996;28;20303;-77
2021/03/17 07:15:29;;;;;;;6.13;4.07;;;6.30;99.90;;;;;;5039232;28;20242;-77
2021/03/17 07:18:16;;;;;;;6.97;4.83;;;6.30;99.90;;;;;;5035260;28;20211;-77
2021/03/17 07:21:05;;;;;;;7.87;4.70;;;6.40;99.90;;;;;;5035383;28;20270;-78
2021/03/17 07:23:50;;;;;;;7.67;4.50;;;6.40;99.90;;;;;;5044959;28;20259;-78
2021/03/17 07:26:35;;;;;;;9.57;3.97;;;6.40;99.90;;;;;;5031116;28;20210;-78
2021/03/17 07:29:20;;;;;;;4.73;3.47;;;6.40;99.90;;;;;;5037097;28;20262;-78
2021/03/17 07:32:05;;;;;;;5.20;3.20;;;6.40;99.90;;;;;;5035449;28;20726;-78
2021/03/17 07:34:50;;;;;;;7.20;3.40;;;6.50;99.90;;;;;;5047680;28;20222;-78
2021/03/17 07:37:36;;;;;;;4.27;2.70;;;6.50;99.90;;;;;;5052918;28;20268;-78
2021/03/17 07:40:23;;;;;;;4.97;3.17;;;6.50;99.90;;;;;;5051058;28;20227;-77
2021/03/17 07:43:10;;;;;;;6.33;3.27;;;6.50;99.90;;;;;;5038819;28;20315;-78
2021/03/17 07:45:56;;;;;;;6.67;3.93;;;6.50;99.90;;;;;;5050883;28;20214;-78
2021/03/17 07:48:41;;;;;;;6.07;4.10;;;6.60;99.90;;;;;;5050987;28;20231;-78
2021/03/17 07:51:26;;;;;;;6.87;3.80;;;6.70;99.90;;;;;;5040341;28;20845;-77
2021/03/17 07:54:20;;;;;;;4.50;3.33;;;6.70;99.90;;;;;;5041893;28;20238;-79
2021/03/17 07:57:07;;;;;;;6.97;3.60;;;6.80;99.90;;;;;;5037206;28;20207;-78
2021/03/17 07:59:55;;;;;;;4.90;3.40;;;6.90;99.90;;;;;;5034287;28;20325;-78
2021/03/17 08:02:40;;;;;;;5.67;3.50;;;7.00;99.90;;;;;;5036590;28;20215;-78
2021/03/17 08:05:25;;;;;;;4.10;2.63;;;7.00;99.90;;;;;;5025474;28;20239;-81
2021/03/17 08:08:11;;;;;;;6.43;2.60;;;7.10;99.90;;;;;;5030425;28;20211;-78
2021/03/17 08:10:57;;;;;;;3.77;2.10;;;7.20;99.90;;;;;;5030242;28;20809;-80
2021/03/17 08:13:44;;;;;;;4.53;1.50;;;7.30;99.90;;;;;;5039284;28;20207;-78
2021/03/17 08:16:32;;;;;;;1.97;1.50;;;7.40;99.90;;;;;;5028039;28;20211;-79
2021/03/17 08:19:20;;;;;;;4.83;2.00;;;7.40;99.90;;;;;;5042270;28;20229;-79
2021/03/17 08:22:06;;;;;;;1.93;1.53;;;7.50;99.90;;;;;;5039537;28;20235;-78
2021/03/17 08:24:51;;;;;;;3.67;2.33;;;7.50;99.90;;;;;;5028136;28;20231;-80
2021/03/17 08:27:37;;;;;;;2.37;1.70;;;7.50;99.90;;;;;;5041659;28;20215;-79
2021/03/17 08:30:31;;;;;;;4.70;1.43;;;7.60;99.90;;;;;;5041991;28;20231;-79
2021/03/17 08:33:33;;;;;;;4.43;1.70;;;7.60;99.90;;;;;;5040404;28;20211;-79
2021/03/17 08:36:18;;;;;;;4.20;1.33;;;7.70;99.90;;;;;;5042044;28;20207;-79
2021/03/17 08:39:04;;;;;;;5.53;1.53;;;7.80;99.90;;;;;;5040635;28;21281;-78
2021/03/17 08:41:56;;;;;;;2.57;1.43;;;7.80;99.90;;;;;;5044932;28;20238;-79
2021/03/17 08:44:47;;;;;;;5.20;2.00;;;7.90;99.90;;;;;;5053189;28;20246;-79
2021/03/17 08:47:43;;;;;;;4.17;2.10;;;8.00;99.90;;;;;;5040462;28;20256;-79
2021/03/17 08:50:29;;;;;;;6.10;2.20;;;8.10;99.90;;;;;;5041320;28;20271;-79
2021/03/17 08:53:39;;;;;;;3.30;2.03;;;8.20;99.90;;;;;;5035273;28;20247;-78
2021/03/17 08:56:46;;;;;;;4.20;1.50;;;8.30;99.90;;;;;;5036098;28;20726;-78
2021/03/17 08:59:39;;;;;;;3.70;1.77;;;8.40;99.90;;;;;;5035182;28;20210;-79
2021/03/17 09:02:52;;;;;;;3.07;2.30;;;8.50;99.90;;;;;;5042159;28;20198;-79
2021/03/17 09:05:37;;;;;;;3.20;2.00;;;8.60;99.90;;;;;;5046589;28;20191;-80
2021/03/17 09:09:00;;;;;;;4.43;2.00;;;8.70;99.90;;;;;;5037065;28;20223;-79
2021/03/17 09:11:54;;;;;;;9.20;2.20;;;8.80;99.90;;;;;;5033567;28;20250;-79
2021/03/17 09:14:39;;;;;;;5.63;2.30;;;8.90;99.90;;;;;;5043736;28;20207;-78
2021/03/17 09:17:31;;;;;;;4.57;2.00;;;9.00;99.90;;;;;;5042189;28;20219;-79
2021/03/17 09:20:29;;;;;;;6.47;2.10;;;9.10;99.90;;;;;;5046263;28;20270;-79
2021/03/17 09:23:17;;;;;;;2.60;2.00;;;9.20;99.90;;;;;;5035819;28;20215;-80
2021/03/17 09:26:03;;;;;;;3.70;1.87;;;9.20;99.90;;;;;;5036961;28;20307;-78
2021/03/17 09:28:48;;;;;;;2.37;2.13;;;9.20;99.90;;;;;;5039843;28;20266;-78
2021/03/17 09:31:34;;;;;;;3.20;1.90;;;9.20;99.90;;;;;;5021491;28;20252;-78
2021/03/17 09:34:26;;;;;;;5.50;1.97;;;9.10;99.90;;;;;;5032531;28;20234;-77
2021/03/17 09:37:12;;;;;;;3.90;1.93;;;9.10;99.90;;;;;;5033671;28;20205;-79
2021/03/17 09:39:57;;;;;;;7.00;2.00;;;9.00;99.90;;;;;;5037552;28;20218;-79
2021/03/17 09:42:43;;;;;;;3.07;1.90;;;9.00;99.90;;;;;;5031906;28;20211;-80
2021/03/17 09:45:27;;;;;;;2.43;1.87;;;9.00;99.90;;;;;;5033167;28;20238;-78
2021/03/17 09:48:12;;;;;;;6.57;1.93;;;8.90;99.90;;;;;;5027444;28;20219;-78
2021/03/17 09:50:59;;;;;;;3.90;1.67;;;8.90;99.90;;;;;;5034210;28;20253;-78
2021/03/17 09:53:45;;;;;;;6.00;2.30;;;8.90;99.90;;;;;;5046470;28;20215;-79
2021/03/17 09:56:36;;;;;;;3.30;2.23;;;8.90;99.90;;;;;;5027941;28;20480;-78
2021/03/17 09:59:24;;;;;;;6.13;2.60;;;9.00;99.90;;;;;;5024565;28;20713;-79
2021/03/17 10:02:14;;;;;;;2.90;2.70;;;9.10;99.90;;;;;;5035861;28;20613;-79
2021/03/17 10:05:01;;;;;;;5.97;3.20;;;9.30;99.90;;;;;;5051081;28;20788;-79
2021/03/17 10:07:46;;;;;;;2.50;2.30;;;9.60;99.90;;;;;;5035765;28;20266;-80
2021/03/17 10:10:32;;;;;;;8.77;3.13;;;10.30;99.90;;;;;;5042384;28;20647;-78
2021/03/17 10:13:17;;;;;;;5.17;2.60;;;10.80;99.90;;;;;;5028610;28;20203;-78
2021/03/17 10:16:02;;;;;;;3.23;2.50;;;11.40;99.90;;;;;;5030893;28;20259;-78
2021/03/17 10:18:54;;;;;;;5.00;2.23;;;11.90;99.90;;;;;;5045219;28;20213;-78
2021/03/17 10:21:39;;;;;;;4.90;1.80;;;12.40;99.90;;;;;;5024394;28;20252;-78
2021/03/17 10:24:39;;;;;;;3.83;2.10;;;12.80;99.90;;;;;;5036862;28;20281;-79
2021/03/17 10:27:26;;;;;;;5.03;1.90;;;13.20;99.90;;;;;;5037758;28;20726;-79
2021/03/17 10:30:13;;;;;;;6.43;2.23;;;13.50;99.90;;;;;;5039893;28;20223;-77
2021/03/17 10:33:01;;;;;;;3.90;1.90;;;13.70;99.90;;;;;;5030635;28;20286;-79
2021/03/17 10:35:48;;;;;;;5.17;1.90;;;13.80;99.90;;;;;;5035412;28;20215;-79
2021/03/17 10:38:33;;;;;;;4.33;2.10;;;13.80;99.90;;;;;;5041334;28;20629;-78
2021/03/17 10:41:42;;;;;;;5.20;2.10;;;13.70;99.90;;;;;;5034223;28;20231;-79
2021/03/17 10:44:29;;;;;;;7.63;1.97;;;13.60;99.90;;;;;;5043499;28;20276;-79
2021/03/17 10:47:16;;;;;;;3.47;2.27;;;13.50;99.90;;;;;;5020348;28;20233;-79
2021/03/17 10:50:01;;;;;;;5.13;1.83;;;13.40;99.90;;;;;;5035606;28;20258;-80
2021/03/17 10:52:48;;;;;;;2.87;1.93;;;13.30;99.90;;;;;;5040106;28;20211;-80
2021/03/17 10:55:34;;;;;;;4.37;2.47;;;13.20;99.90;;;;;;5019152;28;20216;-80
2021/03/17 10:58:21;;;;;;;4.93;2.20;;;13.20;99.90;;;;;;5034063;28;20211;-79
2021/03/17 11:01:07;;;;;;;6.80;2.40;;;13.10;99.90;;;;;;5039395;28;20243;-79
2021/03/17 11:04:06;;;;;;;5.10;2.30;;;13.10;99.90;;;;;;5041492;28;20259;-80
2021/03/17 11:06:57;;;;;;;6.10;2.17;;;13.00;99.90;;;;;;5036194;28;20234;-78
2021/03/17 11:09:42;;;;;;;4.23;1.90;;;13.00;99.90;;;;;;5041241;28;20199;-80
2021/03/17 11:12:29;;;;;;;6.53;2.00;;;12.90;99.90;;;;;;5038893;28;20287;-79
2021/03/17 11:15:24;;;;;;;3.40;2.47;;;12.80;99.90;;;;;;5045152;28;20270;-78
2021/03/17 11:18:10;;;;;;;4.83;2.10;;;12.80;99.90;;;;;;5048318;28;20267;-79
2021/03/17 11:20:59;;;;;;;4.13;2.17;;;12.70;99.90;;;;;;5042666;28;20231;-77
2021/03/17 11:23:44;;;;;;;12.13;3.23;;;12.70;99.90;;;;;;5036888;28;20279;-78
2021/03/17 11:26:31;;;;;;;5.13;2.60;;;12.70;99.90;;;;;;5050482;28;21346;-79
2021/03/17 11:29:18;;;;;;;5.90;2.57;;;12.70;99.90;;;;;;5035973;28;20211;-78
2021/03/17 11:32:07;;;;;;;4.73;2.13;;;12.60;99.90;;;;;;5038292;28;20238;-79
2021/03/17 11:34:53;;;;;;;4.97;2.33;;;12.50;99.90;;;;;;5036853;28;20207;-77
2021/03/17 11:37:38;;;;;;;3.97;2.20;;;12.40;99.90;;;;;;5036869;28;20218;-78
2021/03/17 11:40:23;;;;;;;6.63;1.97;;;12.30;99.90;;;;;;5048444;28;20263;-79
2021/03/17 11:43:10;;;;;;;8.37;2.27;;;12.10;99.90;;;;;;5037936;28;20805;-79
2021/03/17 11:45:56;;;;;;;7.43;3.03;;;11.90;99.90;;;;;;5032469;28;20258;-79
2021/03/17 11:48:41;;;;;;;7.70;3.13;;;11.80;99.90;;;;;;5039238;28;20211;-79
2021/03/17 11:51:27;;;;;;;6.63;2.97;;;11.70;99.90;;;;;;5037155;28;20418;-78
2021/03/17 11:54:12;;;;;;;8.93;2.77;;;11.80;99.90;;;;;;5044628;28;20206;-78
2021/03/17 11:56:58;;;;;;;6.17;2.50;;;12.00;99.90;;;;;;5036574;28;20219;-79
2021/03/17 11:59:43;;;;;;;5.23;2.27;;;12.20;99.90;;;;;;5039617;28;20218;-78
2021/03/17 12:02:28;;;;;;;8.53;2.40;;;12.40;99.90;;;;;;5033406;28;20211;-79
2021/03/17 12:05:14;;;;;;;3.70;2.20;;;12.60;99.90;;;;;;5036877;28;20301;-78
2021/03/17 12:08:01;;;;;;;3.53;2.27;;;12.60;99.90;;;;;;5032379;28;20199;-78
2021/03/17 12:10:49;;;;;;;7.40;2.97;;;12.70;99.90;;;;;;5037520;28;20227;-78
2021/03/17 12:13:33;;;;;;;5.47;2.77;;;12.70;99.90;;;;;;5028643;28;20288;-79
2021/03/17 12:16:19;;;;;;;5.23;2.20;;;12.50;99.90;;;;;;5034955;28;20280;-78
2021/03/17 12:19:04;;;;;;;5.43;2.30;;;12.40;99.90;;;;;;5046600;28;20295;-78
2021/03/17 12:21:49;;;;;;;4.97;2.30;;;12.30;99.90;;;;;;5034830;28;20572;-78
2021/03/17 12:24:35;;;;;;;2.73;2.50;;;12.10;99.90;;;;;;5037821;28;20243;-78
2021/03/17 12:27:19;;;;;;;3.43;2.00;;;12.00;99.90;;;;;;5032799;28;20207;-77
2021/03/17 12:30:06;;;;;;;3.70;2.00;;;11.90;99.90;;;;;;5030355;28;20195;-78
2021/03/17 12:32:53;;;;;;;7.17;2.17;;;11.80;99.90;;;;;;5023240;28;20199;-79
2021/03/17 12:35:40;;;;;;;3.73;1.70;;;11.70;99.90;;;;;;5046080;28;20291;-78
2021/03/17 12:38:25;;;;;;;4.87;2.37;;;11.60;99.90;;;;;;5020823;28;20244;-78
2021/03/17 12:41:11;;;;;;;3.10;1.90;;;11.70;99.90;;;;;;5043422;28;20269;-77
2021/03/17 12:43:56;;;;;;;1.30;1.20;;;11.40;99.90;;;;;;5043503;28;20223;-77
2021/03/17 12:46:41;;;;;;;3.10;1.50;;;11.50;99.90;;;;;;5032475;28;20213;-78
2021/03/17 12:49:27;;;;;;;3.77;1.50;;;11.30;99.90;;;;;;5036254;28;20203;-79
2021/03/17 12:52:12;;;;;;;3.73;1.80;;;11.30;99.90;;;;;;5021479;28;20297;-78
2021/03/17 12:54:56;;;;;;;2.23;1.60;;;11.20;99.90;;;;;;5034187;28;20238;-78
2021/03/17 12:57:42;;;;;;;4.30;1.90;;;11.20;99.90;;;;;;5026412;28;20226;-79
2021/03/17 13:00:29;;;;;;;2.80;1.80;;;11.20;99.90;;;;;;5033619;28;20243;-79
2021/03/17 13:03:14;;;;;;;1.83;1.53;;;11.20;99.90;;;;;;5039254;28;20207;-78
2021/03/17 13:05:59;;;;;;;6.37;2.40;;;11.10;99.90;;;;;;5035686;28;20281;-79
2021/03/17 13:08:44;;;;;;;2.90;1.67;;;11.10;99.90;;;;;;5041789;28;20210;-79
2021/03/17 13:11:29;;;;;;;3.10;1.80;;;11.10;99.90;;;;;;5033039;28;20285;-78
2021/03/17 13:14:15;;;;;;;1.70;1.60;;;11.10;99.90;;;;;;5029586;28;20208;-78
2021/03/17 13:17:00;;;;;;;3.20;1.70;;;11.00;99.90;;;;;;5032550;28;20215;-79
2021/03/17 13:19:44;;;;;;;1.20;1.20;;;11.00;99.90;;;;;;5046819;28;20705;-77
2021/03/17 13:22:29;;;;;;;2.83;1.87;;;10.90;99.90;;;;;;5036373;28;20246;-78
2021/03/17 13:25:14;;;;;;;1.93;1.27;;;10.80;99.90;;;;;;5039095;28;20619;-79
2021/03/17 13:27:59;;;;;;;1.20;1.20;;;10.80;99.90;;;;;;5039041;28;20203;-78
2021/03/17 13:30:47;;;;;;;1.70;1.60;;;10.70;99.90;;;;;;5040623;28;20302;-78
2021/03/17 13:33:33;;;;;;;2.80;1.70;;;10.60;99.90;;;;;;5036782;28;20208;-77
2021/03/17 13:36:18;;;;;;;2.00;1.50;;;10.60;99.90;;;;;;5038130;28;20266;-78
2021/03/17 13:39:05;;;;;;;2.00;1.70;;;10.60;99.90;;;;;;5047107;28;20210;-78
2021/03/17 13:41:50;;;;;;;2.47;1.80;;;10.60;99.90;;;;;;5035512;28;20230;-79
2021/03/17 13:44:35;;;;;;;2.33;1.90;;;10.70;99.90;;;;;;5052077;28;20238;-79
2021/03/17 13:47:21;;;;;;;4.00;1.90;;;10.90;99.90;;;;;;5023113;28;20207;-79
2021/03/17 13:50:10;;;;;;;2.83;1.60;;;11.10;99.90;;;;;;5029103;28;20658;-79
2021/03/17 13:52:56;;;;;;;2.87;1.73;;;11.40;99.90;;;;;;5034253;28;20550;-79
2021/03/17 13:55:41;;;;;;;2.90;1.60;;;11.70;99.90;;;;;;5023214;28;20251;-78
2021/03/17 13:58:26;;;;;;;1.63;1.53;;;11.90;99.90;;;;;;5028555;28;20211;-78
2021/03/17 14:01:13;;;;;;;3.30;1.97;;;12.30;99.90;;;;;;5033211;28;20735;-79
2021/03/17 14:03:59;;;;;;;3.43;2.00;;;12.40;99.90;;;;;;5034487;28;20220;-79
2021/03/17 14:06:44;;;;;;;2.03;1.50;;;12.50;99.90;;;;;;5018168;28;20236;-77
2021/03/17 14:09:28;;;;;;;1.80;1.50;;;12.60;99.90;;;;;;5041126;28;20243;-79
2021/03/17 14:12:13;;;;;;;1.53;1.20;;;12.60;99.90;;;;;;5037179;28;20238;-78
2021/03/17 14:14:58;;;;;;;2.30;1.40;;;12.50;99.90;;;;;;5029690;28;20199;-79
2021/03/17 14:17:45;;;;;;;1.83;1.73;;;12.50;99.90;;;;;;5034241;28;20718;-78
2021/03/17 14:20:31;;;;;;;2.07;1.30;;;12.40;99.90;;;;;;5035647;28;20366;-79
2021/03/17 14:23:16;;;;;;;3.77;1.77;;;12.30;99.90;;;;;;5026944;28;20250;-78
2021/03/17 14:26:01;;;;;;;1.50;1.40;;;12.30;99.90;;;;;;5030647;28;20246;-79
2021/03/17 14:28:47;;;;;;;1.73;1.47;;;12.10;99.90;;;;;;5031435;28;20203;-78
2021/03/17 14:31:32;;;;;;;3.17;1.90;;;12.00;99.90;;;;;;5032141;28;20272;-78
2021/03/17 14:34:17;;;;;;;3.37;1.53;;;11.90;99.90;;;;;;5039589;28;20276;-78
2021/03/17 14:37:03;;;;;;;2.33;1.90;;;11.90;99.90;;;;;;5032335;28;20208;-78